Time;durP1;ratioP1;P1;durP2;ratioP2;P2;SDS_P1;SDS_P2;PMS_P1;PMS_P2;Temp;Humidity;BMP_temperature;BMP_pressure;BME280_temperature;BME280_humidity;BME280_pressure;Samples;Min_cycle;Max_cycle;Signal;HPM_P1;HPM_P2
2021/05/08 17:16:48;;;;;;;1.6;1.45;;;;;;;21.59;70.24121;95060.78;;;;
2021/05/08 17:17:48;;;;;;;1.6;1.45;;;;;;;21.59;70.24121;95060.78;;;;
2021/05/08 17:18:49;;;;;;;1.6;1.45;;;;;;;21.59;70.24121;95060.78;;;;
2021/05/08 17:19:50;;;;;;;1.6;1.45;;;;;;;21.59;70.24121;95060.78;;;;
2021/05/08 17:20:51;;;;;;;1.6;1.45;;;;;;;21.59;70.24121;95060.78;;;;
2021/05/08 17:21:51;;;;;;;1.6;1.45;;;;;;;21.59;70.24121;95060.78;;;;
2021/05/08 17:22:52;;;;;;;1.6;1.45;;;;;;;21.59;70.24121;95060.78;;;;
2021/05/08 17:23:52;;;;;;;1.6;1.45;;;;;;;21.59;70.24121;95060.78;;;;
2021/05/08 17:24:53;;;;;;;1.6;1.45;;;;;;;21.59;70.24121;95060.78;;;;
2021/05/08 17:25:53;;;;;;;1.6;1.45;;;;;;;21.59;70.24121;95060.78;;;;
2021/05/08 17:26:54;;;;;;;1.25;1.1;;;;;;;20.38;70.71875;95072.63;;;;
2021/05/08 17:27:54;;;;;;;1.25;1.1;;;;;;;20.38;70.71875;95072.63;;;;
2021/05/08 17:28:55;;;;;;;1.25;1.1;;;;;;;20.38;70.71875;95072.63;;;;
2021/05/08 17:29:55;;;;;;;1.25;1.1;;;;;;;20.38;70.71875;95072.63;;;;
2021/05/08 17:30:56;;;;;;;1.25;1.1;;;;;;;20.38;70.71875;95072.63;;;;
2021/05/08 17:31:56;;;;;;;1.25;1.1;;;;;;;20.38;70.71875;95072.63;;;;
2021/05/08 17:32:57;;;;;;;1.25;1.1;;;;;;;20.38;70.71875;95072.63;;;;
2021/05/08 17:33:58;;;;;;;1.25;1.1;;;;;;;20.38;70.71875;95072.63;;;;
2021/05/08 17:34:58;;;;;;;1.25;1.1;;;;;;;20.38;70.71875;95072.63;;;;
2021/05/08 17:35:59;;;;;;;1.25;1.1;;;;;;;20.38;70.71875;95072.63;;;;
2021/05/08 17:36:59;;;;;;;1.25;1.1;;;;;;;20.38;70.71875;95072.63;;;;
2021/05/08 17:38:00;;;;;;;1.8;1.6;;;;;;;19.51;71.63281;95064.17;;;;
2021/05/08 17:39:02;;;;;;;1.8;1.6;;;;;;;19.51;71.63281;95064.17;;;;
2021/05/08 17:40:03;;;;;;;1.8;1.6;;;;;;;19.51;71.63281;95064.17;;;;
2021/05/08 17:41:05;;;;;;;1.8;1.6;;;;;;;19.51;71.63281;95064.17;;;;
2021/05/08 17:42:06;;;;;;;1.8;1.6;;;;;;;19.51;71.63281;95064.17;;;;
2021/05/08 17:43:07;;;;;;;1.8;1.6;;;;;;;19.51;71.63281;95064.17;;;;
2021/05/08 17:44:07;;;;;;;1.8;1.6;;;;;;;19.51;71.63281;95064.17;;;;
2021/05/08 17:45:08;;;;;;;1.8;1.6;;;;;;;19.51;71.63281;95064.17;;;;
2021/05/08 17:46:09;;;;;;;1.8;1.6;;;;;;;19.51;71.63281;95064.17;;;;
2021/05/08 17:47:12;;;;;;;1.8;1.6;;;;;;;19.51;71.63281;95064.17;;;;
2021/05/08 17:48:13;;;;;;;2.35;1.8;;;;;;;18.71;72.5498;95054.69;;;;
2021/05/08 17:49:13;;;;;;;2.35;1.8;;;;;;;18.71;72.5498;95054.69;;;;
2021/05/08 17:50:14;;;;;;;2.35;1.8;;;;;;;18.71;72.5498;95054.69;;;;
2021/05/08 17:51:15;;;;;;;2.35;1.8;;;;;;;18.71;72.5498;95054.69;;;;
2021/05/08 17:52:15;;;;;;;2.35;1.8;;;;;;;18.71;72.5498;95054.69;;;;
2021/05/08 17:53:16;;;;;;;2.35;1.8;;;;;;;18.71;72.5498;95054.69;;;;
2021/05/08 17:54:17;;;;;;;2.35;1.8;;;;;;;18.71;72.5498;95054.69;;;;
2021/05/08 17:55:18;;;;;;;2.35;1.8;;;;;;;18.71;72.5498;95054.69;;;;
2021/05/08 17:56:18;;;;;;;2.35;1.8;;;;;;;18.71;72.5498;95054.69;;;;
2021/05/08 17:57:19;;;;;;;2.35;1.8;;;;;;;18.71;72.5498;95054.69;;;;
2021/05/08 17:58:19;;;;;;;2.35;1.8;;;;;;;18.71;72.5498;95054.69;;;;
2021/05/08 17:59:20;;;;;;;2.4;2.2;;;;;;;17.99;74.22949;95054.88;;;;
2021/05/08 18:00:23;;;;;;;2.4;2.2;;;;;;;17.99;74.22949;95054.88;;;;
2021/05/08 18:01:23;;;;;;;2.4;2.2;;;;;;;17.99;74.22949;95054.88;;;;
2021/05/08 18:02:24;;;;;;;2.4;2.2;;;;;;;17.99;74.22949;95054.88;;;;
2021/05/08 18:03:24;;;;;;;2.4;2.2;;;;;;;17.99;74.22949;95054.88;;;;
2021/05/08 18:04:25;;;;;;;2.4;2.2;;;;;;;17.99;74.22949;95054.88;;;;
2021/05/08 18:05:26;;;;;;;2.4;2.2;;;;;;;17.99;74.22949;95054.88;;;;
2021/05/08 18:06:26;;;;;;;2.4;2.2;;;;;;;17.99;74.22949;95054.88;;;;
2021/05/08 18:07:27;;;;;;;2.4;2.2;;;;;;;17.99;74.22949;95054.88;;;;
2021/05/08 18:08:28;;;;;;;2.4;2.2;;;;;;;17.99;74.22949;95054.88;;;;
2021/05/08 18:09:28;;;;;;;3.3;2.5;;;;;;;17.34;75.78223;95060.86;;;;
2021/05/08 18:10:29;;;;;;;3.3;2.5;;;;;;;17.34;75.78223;95060.86;;;;
2021/05/08 18:11:30;;;;;;;3.3;2.5;;;;;;;17.34;75.78223;95060.86;;;;
2021/05/08 18:12:30;;;;;;;3.3;2.5;;;;;;;17.34;75.78223;95060.86;;;;
2021/05/08 18:13:31;;;;;;;3.3;2.5;;;;;;;17.34;75.78223;95060.86;;;;
2021/05/08 18:14:32;;;;;;;3.3;2.5;;;;;;;17.34;75.78223;95060.86;;;;
2021/05/08 18:15:32;;;;;;;3.3;2.5;;;;;;;17.34;75.78223;95060.86;;;;
2021/05/08 18:16:33;;;;;;;3.3;2.5;;;;;;;17.34;75.78223;95060.86;;;;
2021/05/08 18:17:34;;;;;;;3.3;2.5;;;;;;;17.34;75.78223;95060.86;;;;
2021/05/08 18:18:34;;;;;;;3.3;2.5;;;;;;;17.34;75.78223;95060.86;;;;
2021/05/08 18:19:35;;;;;;;3.3;2.5;;;;;;;17.34;75.78223;95060.86;;;;
2021/05/08 18:20:35;;;;;;;2.95;2.4;;;;;;;16.84;77.39941;95056.48;;;;
2021/05/08 18:21:36;;;;;;;2.95;2.4;;;;;;;16.84;77.39941;95056.48;;;;
2021/05/08 18:22:37;;;;;;;2.95;2.4;;;;;;;16.84;77.39941;95056.48;;;;
2021/05/08 18:23:37;;;;;;;2.95;2.4;;;;;;;16.84;77.39941;95056.48;;;;
2021/05/08 18:24:38;;;;;;;2.95;2.4;;;;;;;16.84;77.39941;95056.48;;;;
2021/05/08 18:25:38;;;;;;;2.95;2.4;;;;;;;16.84;77.39941;95056.48;;;;
2021/05/08 18:26:39;;;;;;;2.95;2.4;;;;;;;16.84;77.39941;95056.48;;;;
2021/05/08 18:27:40;;;;;;;2.95;2.4;;;;;;;16.84;77.39941;95056.48;;;;
2021/05/08 18:28:41;;;;;;;2.95;2.4;;;;;;;16.84;77.39941;95056.48;;;;
2021/05/08 18:29:41;;;;;;;2.95;2.4;;;;;;;16.84;77.39941;95056.48;;;;
2021/05/08 18:30:43;;;;;;;2.9;2.3;;;;;;;16.28;78.6582;95050.81;;;;
2021/05/08 18:31:43;;;;;;;2.9;2.3;;;;;;;16.28;78.6582;95050.81;;;;
2021/05/08 18:32:44;;;;;;;2.9;2.3;;;;;;;16.28;78.6582;95050.81;;;;
2021/05/08 18:33:45;;;;;;;2.9;2.3;;;;;;;16.28;78.6582;95050.81;;;;
2021/05/08 18:34:46;;;;;;;2.9;2.3;;;;;;;16.28;78.6582;95050.81;;;;
2021/05/08 18:35:46;;;;;;;2.9;2.3;;;;;;;16.28;78.6582;95050.81;;;;
2021/05/08 18:36:47;;;;;;;2.9;2.3;;;;;;;16.28;78.6582;95050.81;;;;
2021/05/08 18:37:47;;;;;;;2.9;2.3;;;;;;;16.28;78.6582;95050.81;;;;
2021/05/08 18:38:48;;;;;;;2.9;2.3;;;;;;;16.28;78.6582;95050.81;;;;
2021/05/08 18:39:48;;;;;;;2.9;2.3;;;;;;;16.28;78.6582;95050.81;;;;
2021/05/08 18:40:49;;;;;;;2.9;2.3;;;;;;;16.28;78.6582;95050.81;;;;
2021/05/08 18:41:49;;;;;;;2.699999;2.2;;;;;;;15.46;80.29492;95056.22;;;;
2021/05/08 18:42:50;;;;;;;2.699999;2.2;;;;;;;15.46;80.29492;95056.22;;;;
2021/05/08 18:43:50;;;;;;;2.699999;2.2;;;;;;;15.46;80.29492;95056.22;;;;
2021/05/08 18:44:51;;;;;;;2.699999;2.2;;;;;;;15.46;80.29492;95056.22;;;;
2021/05/08 18:45:52;;;;;;;2.699999;2.2;;;;;;;15.46;80.29492;95056.22;;;;
2021/05/08 18:46:52;;;;;;;2.699999;2.2;;;;;;;15.46;80.29492;95056.22;;;;
2021/05/08 18:47:53;;;;;;;2.699999;2.2;;;;;;;15.46;80.29492;95056.22;;;;
2021/05/08 18:48:54;;;;;;;2.699999;2.2;;;;;;;15.46;80.29492;95056.22;;;;
2021/05/08 18:49:54;;;;;;;2.699999;2.2;;;;;;;15.46;80.29492;95056.22;;;;
2021/05/08 18:50:55;;;;;;;2.699999;2.2;;;;;;;15.46;80.29492;95056.22;;;;
2021/05/08 18:51:55;;;;;;;3.2;2.5;;;;;;;14.69;82.13867;95056.33;;;;
2021/05/08 18:52:56;;;;;;;3.2;2.5;;;;;;;14.69;82.13867;95056.33;;;;
2021/05/08 18:53:56;;;;;;;3.2;2.5;;;;;;;14.69;82.13867;95056.33;;;;
2021/05/08 18:54:57;;;;;;;3.2;2.5;;;;;;;14.69;82.13867;95056.33;;;;
2021/05/08 18:55:57;;;;;;;3.2;2.5;;;;;;;14.69;82.13867;95056.33;;;;
2021/05/08 18:56:58;;;;;;;3.2;2.5;;;;;;;14.69;82.13867;95056.33;;;;
2021/05/08 18:57:58;;;;;;;3.2;2.5;;;;;;;14.69;82.13867;95056.33;;;;
2021/05/08 18:59:02;;;;;;;3.2;2.5;;;;;;;14.69;82.13867;95056.33;;;;
2021/05/08 19:00:03;;;;;;;3.2;2.5;;;;;;;14.69;82.13867;95056.33;;;;
2021/05/08 19:01:05;;;;;;;3.2;2.5;;;;;;;14.69;82.13867;95056.33;;;;
2021/05/08 19:02:06;;;;;;;3.2;2.5;;;;;;;14.69;82.13867;95056.33;;;;
2021/05/08 19:03:06;;;;;;;3.85;2.299999;;;;;;;14.11;83.51465;95066.06;;;;
2021/05/08 19:04:07;;;;;;;3.85;2.299999;;;;;;;14.11;83.51465;95066.06;;;;
2021/05/08 19:05:07;;;;;;;3.85;2.299999;;;;;;;14.11;83.51465;95066.06;;;;
2021/05/08 19:06:09;;;;;;;3.85;2.299999;;;;;;;14.11;83.51465;95066.06;;;;
2021/05/08 19:07:10;;;;;;;3.85;2.299999;;;;;;;14.11;83.51465;95066.06;;;;
2021/05/08 19:08:10;;;;;;;3.85;2.299999;;;;;;;14.11;83.51465;95066.06;;;;
2021/05/08 19:09:11;;;;;;;3.85;2.299999;;;;;;;14.11;83.51465;95066.06;;;;
2021/05/08 19:10:12;;;;;;;3.85;2.299999;;;;;;;14.11;83.51465;95066.06;;;;
2021/05/08 19:11:12;;;;;;;3.85;2.299999;;;;;;;14.11;83.51465;95066.06;;;;
2021/05/08 19:12:13;;;;;;;3.85;2.299999;;;;;;;14.11;83.51465;95066.06;;;;
2021/05/08 19:13:13;;;;;;;3.85;2.299999;;;;;;;14.11;83.51465;95066.06;;;;
2021/05/08 19:14:14;;;;;;;2.65;2.45;;;;;;;13.58;85.00488;95061.24;;;;
2021/05/08 19:15:15;;;;;;;2.65;2.45;;;;;;;13.58;85.00488;95061.24;;;;
2021/05/08 19:16:16;;;;;;;2.65;2.45;;;;;;;13.58;85.00488;95061.24;;;;
2021/05/08 19:17:17;;;;;;;2.65;2.45;;;;;;;13.58;85.00488;95061.24;;;;
2021/05/08 19:18:17;;;;;;;2.65;2.45;;;;;;;13.58;85.00488;95061.24;;;;
2021/05/08 19:19:18;;;;;;;2.65;2.45;;;;;;;13.58;85.00488;95061.24;;;;
2021/05/08 19:20:18;;;;;;;2.65;2.45;;;;;;;13.58;85.00488;95061.24;;;;
2021/05/08 19:21:19;;;;;;;2.65;2.45;;;;;;;13.58;85.00488;95061.24;;;;
2021/05/08 19:22:19;;;;;;;2.65;2.45;;;;;;;13.58;85.00488;95061.24;;;;
2021/05/08 19:23:20;;;;;;;2.65;2.45;;;;;;;13.58;85.00488;95061.24;;;;
2021/05/08 19:24:20;;;;;;;4.5;2.85;;;;;;;13.19;86.40039;95065.64;;;;
2021/05/08 19:25:21;;;;;;;4.5;2.85;;;;;;;13.19;86.40039;95065.64;;;;
2021/05/08 19:26:22;;;;;;;4.5;2.85;;;;;;;13.19;86.40039;95065.64;;;;
2021/05/08 19:27:22;;;;;;;4.5;2.85;;;;;;;13.19;86.40039;95065.64;;;;
2021/05/08 19:28:23;;;;;;;4.5;2.85;;;;;;;13.19;86.40039;95065.64;;;;
2021/05/08 19:29:24;;;;;;;4.5;2.85;;;;;;;13.19;86.40039;95065.64;;;;
2021/05/08 19:30:25;;;;;;;4.5;2.85;;;;;;;13.19;86.40039;95065.64;;;;
2021/05/08 19:31:26;;;;;;;4.5;2.85;;;;;;;13.19;86.40039;95065.64;;;;
2021/05/08 19:32:26;;;;;;;4.5;2.85;;;;;;;13.19;86.40039;95065.64;;;;
2021/05/08 19:33:27;;;;;;;4.5;2.85;;;;;;;13.19;86.40039;95065.64;;;;
2021/05/08 19:34:32;;;;;;;4.5;2.85;;;;;;;13.19;86.40039;95065.64;;;;
2021/05/08 19:35:33;;;;;;;5.299999;4.099999;;;;;;;12.8;87.49219;95067.67;;;;
2021/05/08 19:36:34;;;;;;;5.299999;4.099999;;;;;;;12.8;87.49219;95067.67;;;;
2021/05/08 19:37:34;;;;;;;5.299999;4.099999;;;;;;;12.8;87.49219;95067.67;;;;
2021/05/08 19:38:35;;;;;;;5.299999;4.099999;;;;;;;12.8;87.49219;95067.67;;;;
2021/05/08 19:39:35;;;;;;;5.299999;4.099999;;;;;;;12.8;87.49219;95067.67;;;;
2021/05/08 19:40:36;;;;;;;5.299999;4.099999;;;;;;;12.8;87.49219;95067.67;;;;
2021/05/08 19:41:37;;;;;;;5.299999;4.099999;;;;;;;12.8;87.49219;95067.67;;;;
2021/05/08 19:42:38;;;;;;;5.299999;4.099999;;;;;;;12.8;87.49219;95067.67;;;;
2021/05/08 19:43:39;;;;;;;5.299999;4.099999;;;;;;;12.8;87.49219;95067.67;;;;
2021/05/08 19:44:39;;;;;;;5.299999;4.099999;;;;;;;12.8;87.49219;95067.67;;;;
2021/05/08 19:45:40;;;;;;;5.45;4.149999;;;;;;;12.39;88.71582;95061.51;;;;
2021/05/08 19:46:40;;;;;;;5.45;4.149999;;;;;;;12.39;88.71582;95061.51;;;;
2021/05/08 19:47:41;;;;;;;5.45;4.149999;;;;;;;12.39;88.71582;95061.51;;;;
2021/05/08 19:48:42;;;;;;;5.45;4.149999;;;;;;;12.39;88.71582;95061.51;;;;
2021/05/08 19:49:42;;;;;;;5.45;4.149999;;;;;;;12.39;88.71582;95061.51;;;;
2021/05/08 19:50:43;;;;;;;5.45;4.149999;;;;;;;12.39;88.71582;95061.51;;;;
2021/05/08 19:51:43;;;;;;;5.45;4.149999;;;;;;;12.39;88.71582;95061.51;;;;
2021/05/08 19:52:44;;;;;;;5.45;4.149999;;;;;;;12.39;88.71582;95061.51;;;;
2021/05/08 19:53:45;;;;;;;5.45;4.149999;;;;;;;12.39;88.71582;95061.51;;;;
2021/05/08 19:54:46;;;;;;;5.45;4.149999;;;;;;;12.39;88.71582;95061.51;;;;
2021/05/08 19:55:49;;;;;;;5.45;4.149999;;;;;;;12.39;88.71582;95061.51;;;;
2021/05/08 19:56:49;;;;;;;5.05;4.5;;;;;;;11.96;89.85645;95058.78;;;;
2021/05/08 19:57:50;;;;;;;5.05;4.5;;;;;;;11.96;89.85645;95058.78;;;;
2021/05/08 19:58:50;;;;;;;5.05;4.5;;;;;;;11.96;89.85645;95058.78;;;;
2021/05/08 19:59:51;;;;;;;5.05;4.5;;;;;;;11.96;89.85645;95058.78;;;;
2021/05/08 20:00:51;;;;;;;5.05;4.5;;;;;;;11.96;89.85645;95058.78;;;;
2021/05/08 20:01:52;;;;;;;5.05;4.5;;;;;;;11.96;89.85645;95058.78;;;;
2021/05/08 20:02:52;;;;;;;5.05;4.5;;;;;;;11.96;89.85645;95058.78;;;;
2021/05/08 20:03:53;;;;;;;5.05;4.5;;;;;;;11.96;89.85645;95058.78;;;;
2021/05/08 20:04:54;;;;;;;5.05;4.5;;;;;;;11.96;89.85645;95058.78;;;;
2021/05/08 20:05:54;;;;;;;5.05;4.5;;;;;;;11.96;89.85645;95058.78;;;;
2021/05/08 20:06:55;;;;;;;5.05;4.55;;;;;;;11.6;91.0752;95072.27;;;;
2021/05/08 20:07:55;;;;;;;5.05;4.55;;;;;;;11.6;91.0752;95072.27;;;;
2021/05/08 20:08:56;;;;;;;5.05;4.55;;;;;;;11.6;91.0752;95072.27;;;;
2021/05/08 20:09:57;;;;;;;5.05;4.55;;;;;;;11.6;91.0752;95072.27;;;;
2021/05/08 20:10:57;;;;;;;5.05;4.55;;;;;;;11.6;91.0752;95072.27;;;;
2021/05/08 20:11:58;;;;;;;5.05;4.55;;;;;;;11.6;91.0752;95072.27;;;;
2021/05/08 20:12:58;;;;;;;5.05;4.55;;;;;;;11.6;91.0752;95072.27;;;;
2021/05/08 20:13:59;;;;;;;5.05;4.55;;;;;;;11.6;91.0752;95072.27;;;;
2021/05/08 20:14:59;;;;;;;5.05;4.55;;;;;;;11.6;91.0752;95072.27;;;;
2021/05/08 20:16:00;;;;;;;5.05;4.55;;;;;;;11.6;91.0752;95072.27;;;;
2021/05/08 20:17:00;;;;;;;5.05;4.55;;;;;;;11.6;91.0752;95072.27;;;;
2021/05/08 20:18:01;;;;;;;6.9;5.099999;;;;;;;11.18;92.01074;95070.22;;;;
2021/05/08 20:19:02;;;;;;;6.9;5.099999;;;;;;;11.18;92.01074;95070.22;;;;
2021/05/08 20:20:03;;;;;;;6.9;5.099999;;;;;;;11.18;92.01074;95070.22;;;;
2021/05/08 20:21:05;;;;;;;6.9;5.099999;;;;;;;11.18;92.01074;95070.22;;;;
2021/05/08 20:22:06;;;;;;;6.9;5.099999;;;;;;;11.18;92.01074;95070.22;;;;
2021/05/08 20:23:08;;;;;;;6.9;5.099999;;;;;;;11.18;92.01074;95070.22;;;;
2021/05/08 20:24:08;;;;;;;6.9;5.099999;;;;;;;11.18;92.01074;95070.22;;;;
2021/05/08 20:25:09;;;;;;;6.9;5.099999;;;;;;;11.18;92.01074;95070.22;;;;
2021/05/08 20:26:11;;;;;;;6.9;5.099999;;;;;;;11.18;92.01074;95070.22;;;;
2021/05/08 20:27:11;;;;;;;6.9;5.099999;;;;;;;11.18;92.01074;95070.22;;;;
2021/05/08 20:28:12;;;;;;;7.500001;5.1;;;;;;;10.77;93.32227;95062.77;;;;
2021/05/08 20:29:12;;;;;;;7.500001;5.1;;;;;;;10.77;93.32227;95062.77;;;;
2021/05/08 20:30:13;;;;;;;7.500001;5.1;;;;;;;10.77;93.32227;95062.77;;;;
2021/05/08 20:31:14;;;;;;;7.500001;5.1;;;;;;;10.77;93.32227;95062.77;;;;
2021/05/08 20:32:15;;;;;;;7.500001;5.1;;;;;;;10.77;93.32227;95062.77;;;;
2021/05/08 20:33:18;;;;;;;7.500001;5.1;;;;;;;10.77;93.32227;95062.77;;;;
2021/05/08 20:34:18;;;;;;;7.500001;5.1;;;;;;;10.77;93.32227;95062.77;;;;
2021/05/08 20:35:19;;;;;;;7.500001;5.1;;;;;;;10.77;93.32227;95062.77;;;;
2021/05/08 20:36:20;;;;;;;7.500001;5.1;;;;;;;10.77;93.32227;95062.77;;;;
2021/05/08 20:37:21;;;;;;;7.500001;5.1;;;;;;;10.77;93.32227;95062.77;;;;
2021/05/08 20:38:22;;;;;;;7.500001;5.1;;;;;;;10.77;93.32227;95062.77;;;;
2021/05/08 20:39:23;;;;;;;5.7;4.550001;;;;;;;10.42;94.5752;95068.42;;;;
2021/05/08 20:40:24;;;;;;;5.7;4.550001;;;;;;;10.42;94.5752;95068.42;;;;
2021/05/08 20:41:24;;;;;;;5.7;4.550001;;;;;;;10.42;94.5752;95068.42;;;;
2021/05/08 20:42:26;;;;;;;5.7;4.550001;;;;;;;10.42;94.5752;95068.42;;;;
2021/05/08 20:43:27;;;;;;;5.7;4.550001;;;;;;;10.42;94.5752;95068.42;;;;
2021/05/08 20:44:27;;;;;;;5.7;4.550001;;;;;;;10.42;94.5752;95068.42;;;;
2021/05/08 20:45:28;;;;;;;5.7;4.550001;;;;;;;10.42;94.5752;95068.42;;;;
2021/05/08 20:46:29;;;;;;;5.7;4.550001;;;;;;;10.42;94.5752;95068.42;;;;
2021/05/08 20:47:30;;;;;;;5.7;4.550001;;;;;;;10.42;94.5752;95068.42;;;;
2021/05/08 20:48:30;;;;;;;5.7;4.550001;;;;;;;10.42;94.5752;95068.42;;;;
2021/05/08 20:49:31;;;;;;;6.05;4.05;;;;;;;10.1;95.63184;95069.41;;;;
2021/05/08 20:50:31;;;;;;;6.05;4.05;;;;;;;10.1;95.63184;95069.41;;;;
2021/05/08 20:51:32;;;;;;;6.05;4.05;;;;;;;10.1;95.63184;95069.41;;;;
2021/05/08 20:52:33;;;;;;;6.05;4.05;;;;;;;10.1;95.63184;95069.41;;;;
2021/05/08 20:53:34;;;;;;;6.05;4.05;;;;;;;10.1;95.63184;95069.41;;;;
2021/05/08 20:54:35;;;;;;;6.05;4.05;;;;;;;10.1;95.63184;95069.41;;;;
2021/05/08 20:55:36;;;;;;;6.05;4.05;;;;;;;10.1;95.63184;95069.41;;;;
2021/05/08 20:56:36;;;;;;;6.05;4.05;;;;;;;10.1;95.63184;95069.41;;;;
2021/05/08 20:57:45;;;;;;;6.05;4.05;;;;;;;10.1;95.63184;95069.41;;;;
2021/05/08 20:58:46;;;;;;;6.05;4.05;;;;;;;10.1;95.63184;95069.41;;;;
2021/05/08 20:59:47;;;;;;;6.05;4.05;;;;;;;10.1;95.63184;95069.41;;;;
2021/05/08 21:00:49;;;;;;;6.35;4.1;;;;;;;9.84;96.58301;95073.5;;;;
2021/05/08 21:01:49;;;;;;;6.35;4.1;;;;;;;9.84;96.58301;95073.5;;;;
2021/05/08 21:02:50;;;;;;;6.35;4.1;;;;;;;9.84;96.58301;95073.5;;;;
2021/05/08 21:03:51;;;;;;;6.35;4.1;;;;;;;9.84;96.58301;95073.5;;;;
2021/05/08 21:04:52;;;;;;;6.35;4.1;;;;;;;9.84;96.58301;95073.5;;;;
2021/05/08 21:05:53;;;;;;;6.35;4.1;;;;;;;9.84;96.58301;95073.5;;;;
2021/05/08 21:06:54;;;;;;;6.35;4.1;;;;;;;9.84;96.58301;95073.5;;;;
2021/05/08 21:07:54;;;;;;;6.35;4.1;;;;;;;9.84;96.58301;95073.5;;;;
2021/05/08 21:08:55;;;;;;;6.35;4.1;;;;;;;9.84;96.58301;95073.5;;;;
2021/05/08 21:09:56;;;;;;;6.35;4.1;;;;;;;9.84;96.58301;95073.5;;;;
2021/05/08 21:10:57;;;;;;;4.599999;4;;;;;;;9.67;97.37207;95064.92;;;;
2021/05/08 21:11:58;;;;;;;4.599999;4;;;;;;;9.67;97.37207;95064.92;;;;
2021/05/08 21:12:59;;;;;;;4.599999;4;;;;;;;9.67;97.37207;95064.92;;;;
2021/05/08 21:13:59;;;;;;;4.599999;4;;;;;;;9.67;97.37207;95064.92;;;;
2021/05/08 21:15:00;;;;;;;4.599999;4;;;;;;;9.67;97.37207;95064.92;;;;
2021/05/08 21:16:01;;;;;;;4.599999;4;;;;;;;9.67;97.37207;95064.92;;;;
2021/05/08 21:17:01;;;;;;;4.599999;4;;;;;;;9.67;97.37207;95064.92;;;;
2021/05/08 21:18:02;;;;;;;4.599999;4;;;;;;;9.67;97.37207;95064.92;;;;
2021/05/08 21:19:02;;;;;;;4.599999;4;;;;;;;9.67;97.37207;95064.92;;;;
2021/05/08 21:20:03;;;;;;;4.599999;4;;;;;;;9.67;97.37207;95064.92;;;;
2021/05/08 21:21:05;;;;;;;4.599999;4;;;;;;;9.67;97.37207;95064.92;;;;
2021/05/08 21:22:06;;;;;;;4.6;3.8;;;;;;;9.47;97.83691;95061.35;;;;
2021/05/08 21:23:06;;;;;;;4.6;3.8;;;;;;;9.47;97.83691;95061.35;;;;
2021/05/08 21:24:07;;;;;;;4.6;3.8;;;;;;;9.47;97.83691;95061.35;;;;
2021/05/08 21:25:09;;;;;;;4.6;3.8;;;;;;;9.47;97.83691;95061.35;;;;
2021/05/08 21:26:10;;;;;;;4.6;3.8;;;;;;;9.47;97.83691;95061.35;;;;
2021/05/08 21:27:11;;;;;;;4.6;3.8;;;;;;;9.47;97.83691;95061.35;;;;
2021/05/08 21:28:14;;;;;;;4.6;3.8;;;;;;;9.47;97.83691;95061.35;;;;
2021/05/08 21:29:14;;;;;;;4.6;3.8;;;;;;;9.47;97.83691;95061.35;;;;
2021/05/08 21:30:15;;;;;;;4.6;3.8;;;;;;;9.47;97.83691;95061.35;;;;
2021/05/08 21:31:16;;;;;;;4.6;3.8;;;;;;;9.47;97.83691;95061.35;;;;
2021/05/08 21:32:16;;;;;;;3.95;3.55;;;;;;;9.29;98.53906;95064.97;;;;
2021/05/08 21:33:18;;;;;;;3.95;3.55;;;;;;;9.29;98.53906;95064.97;;;;
2021/05/08 21:34:19;;;;;;;3.95;3.55;;;;;;;9.29;98.53906;95064.97;;;;
2021/05/08 21:35:20;;;;;;;3.95;3.55;;;;;;;9.29;98.53906;95064.97;;;;
2021/05/08 21:36:21;;;;;;;3.95;3.55;;;;;;;9.29;98.53906;95064.97;;;;
2021/05/08 21:37:22;;;;;;;3.95;3.55;;;;;;;9.29;98.53906;95064.97;;;;
2021/05/08 21:38:22;;;;;;;3.95;3.55;;;;;;;9.29;98.53906;95064.97;;;;
2021/05/08 21:39:23;;;;;;;3.95;3.55;;;;;;;9.29;98.53906;95064.97;;;;
2021/05/08 21:40:24;;;;;;;3.95;3.55;;;;;;;9.29;98.53906;95064.97;;;;
2021/05/08 21:41:25;;;;;;;3.95;3.55;;;;;;;9.29;98.53906;95064.97;;;;
2021/05/08 21:42:25;;;;;;;3.95;3.55;;;;;;;9.29;98.53906;95064.97;;;;
2021/05/08 21:43:26;;;;;;;6.2;3.7;;;;;;;9.04;99.26465;95067.99;;;;
2021/05/08 21:44:26;;;;;;;6.2;3.7;;;;;;;9.04;99.26465;95067.99;;;;
2021/05/08 21:45:27;;;;;;;6.2;3.7;;;;;;;9.04;99.26465;95067.99;;;;
2021/05/08 21:46:27;;;;;;;6.2;3.7;;;;;;;9.04;99.26465;95067.99;;;;
2021/05/08 21:47:28;;;;;;;6.2;3.7;;;;;;;9.04;99.26465;95067.99;;;;
2021/05/08 21:48:28;;;;;;;6.2;3.7;;;;;;;9.04;99.26465;95067.99;;;;
2021/05/08 21:49:29;;;;;;;6.2;3.7;;;;;;;9.04;99.26465;95067.99;;;;
2021/05/08 21:50:29;;;;;;;6.2;3.7;;;;;;;9.04;99.26465;95067.99;;;;
2021/05/08 21:51:30;;;;;;;6.2;3.7;;;;;;;9.04;99.26465;95067.99;;;;
2021/05/08 21:52:30;;;;;;;6.2;3.7;;;;;;;9.04;99.26465;95067.99;;;;
2021/05/08 21:53:31;;;;;;;4.65;3.75;;;;;;;8.81;100;95071.04;;;;
2021/05/08 21:54:31;;;;;;;4.65;3.75;;;;;;;8.81;100;95071.04;;;;
2021/05/08 21:55:32;;;;;;;4.65;3.75;;;;;;;8.81;100;95071.04;;;;
2021/05/08 21:56:32;;;;;;;4.65;3.75;;;;;;;8.81;100;95071.04;;;;
2021/05/08 21:57:33;;;;;;;4.65;3.75;;;;;;;8.81;100;95071.04;;;;
2021/05/08 21:58:34;;;;;;;4.65;3.75;;;;;;;8.81;100;95071.04;;;;
2021/05/08 21:59:34;;;;;;;4.65;3.75;;;;;;;8.81;100;95071.04;;;;
2021/05/08 22:00:35;;;;;;;4.65;3.75;;;;;;;8.81;100;95071.04;;;;
2021/05/08 22:01:41;;;;;;;4.65;3.75;;;;;;;8.81;100;95071.04;;;;
2021/05/08 22:02:42;;;;;;;4.65;3.75;;;;;;;8.81;100;95071.04;;;;
2021/05/08 22:03:43;;;;;;;4.65;3.75;;;;;;;8.81;100;95071.04;;;;
2021/05/08 22:04:43;;;;;;;4.3;3.8;;;;;;;8.59;100;95069.9;;;;
2021/05/08 22:05:44;;;;;;;4.3;3.8;;;;;;;8.59;100;95069.9;;;;
2021/05/08 22:06:45;;;;;;;4.3;3.8;;;;;;;8.59;100;95069.9;;;;
2021/05/08 22:07:45;;;;;;;4.3;3.8;;;;;;;8.59;100;95069.9;;;;
2021/05/08 22:08:46;;;;;;;4.3;3.8;;;;;;;8.59;100;95069.9;;;;
2021/05/08 22:09:46;;;;;;;4.3;3.8;;;;;;;8.59;100;95069.9;;;;
2021/05/08 22:10:47;;;;;;;4.3;3.8;;;;;;;8.59;100;95069.9;;;;
2021/05/08 22:11:47;;;;;;;4.3;3.8;;;;;;;8.59;100;95069.9;;;;
2021/05/08 22:12:48;;;;;;;4.3;3.8;;;;;;;8.59;100;95069.9;;;;
2021/05/08 22:13:49;;;;;;;4.3;3.8;;;;;;;8.59;100;95069.9;;;;
2021/05/08 22:14:49;;;;;;;4.05;3.65;;;;;;;8.38;100;95063.69;;;;
2021/05/08 22:15:50;;;;;;;4.05;3.65;;;;;;;8.38;100;95063.69;;;;
2021/05/08 22:16:50;;;;;;;4.05;3.65;;;;;;;8.38;100;95063.69;;;;
2021/05/08 22:17:51;;;;;;;4.05;3.65;;;;;;;8.38;100;95063.69;;;;
2021/05/08 22:18:51;;;;;;;4.05;3.65;;;;;;;8.38;100;95063.69;;;;
2021/05/08 22:19:52;;;;;;;4.05;3.65;;;;;;;8.38;100;95063.69;;;;
2021/05/08 22:20:53;;;;;;;4.05;3.65;;;;;;;8.38;100;95063.69;;;;
2021/05/08 22:21:53;;;;;;;4.05;3.65;;;;;;;8.38;100;95063.69;;;;
2021/05/08 22:22:54;;;;;;;4.05;3.65;;;;;;;8.38;100;95063.69;;;;
2021/05/08 22:23:55;;;;;;;4.05;3.65;;;;;;;8.38;100;95063.69;;;;
2021/05/08 22:24:55;;;;;;;4.05;3.65;;;;;;;8.38;100;95063.69;;;;
2021/05/08 22:25:56;;;;;;;3.6;3.3;;;;;;;8.15;100;95062.08;;;;
2021/05/08 22:26:57;;;;;;;3.6;3.3;;;;;;;8.15;100;95062.08;;;;
2021/05/08 22:27:57;;;;;;;3.6;3.3;;;;;;;8.15;100;95062.08;;;;
2021/05/08 22:28:58;;;;;;;3.6;3.3;;;;;;;8.15;100;95062.08;;;;
2021/05/08 22:29:58;;;;;;;3.6;3.3;;;;;;;8.15;100;95062.08;;;;
2021/05/08 22:30:59;;;;;;;3.6;3.3;;;;;;;8.15;100;95062.08;;;;
2021/05/08 22:32:01;;;;;;;3.6;3.3;;;;;;;8.15;100;95062.08;;;;
2021/05/08 22:33:01;;;;;;;3.6;3.3;;;;;;;8.15;100;95062.08;;;;
2021/05/08 22:34:03;;;;;;;3.6;3.3;;;;;;;8.15;100;95062.08;;;;
2021/05/08 22:35:04;;;;;;;3.6;3.3;;;;;;;8.15;100;95062.08;;;;
2021/05/08 22:36:05;;;;;;;5.6;3.75;;;;;;;7.98;100;95060.24;;;;
2021/05/08 22:37:06;;;;;;;5.6;3.75;;;;;;;7.98;100;95060.24;;;;
2021/05/08 22:38:07;;;;;;;5.6;3.75;;;;;;;7.98;100;95060.24;;;;
2021/05/08 22:39:07;;;;;;;5.6;3.75;;;;;;;7.98;100;95060.24;;;;
2021/05/08 22:40:08;;;;;;;5.6;3.75;;;;;;;7.98;100;95060.24;;;;
2021/05/08 22:41:10;;;;;;;5.6;3.75;;;;;;;7.98;100;95060.24;;;;
2021/05/08 22:42:11;;;;;;;5.6;3.75;;;;;;;7.98;100;95060.24;;;;
2021/05/08 22:43:11;;;;;;;5.6;3.75;;;;;;;7.98;100;95060.24;;;;
2021/05/08 22:44:12;;;;;;;5.6;3.75;;;;;;;7.98;100;95060.24;;;;
2021/05/08 22:45:12;;;;;;;5.6;3.75;;;;;;;7.98;100;95060.24;;;;
2021/05/08 22:46:15;;;;;;;5.6;3.75;;;;;;;7.98;100;95060.24;;;;
2021/05/08 22:47:33;;;;;;;6.6;4.15;;;;;;;7.79;100;95068.41;;;;
2021/05/08 22:48:34;;;;;;;6.6;4.15;;;;;;;7.79;100;95068.41;;;;
2021/05/08 22:49:34;;;;;;;6.6;4.15;;;;;;;7.79;100;95068.41;;;;
2021/05/08 22:50:37;;;;;;;6.6;4.15;;;;;;;7.79;100;95068.41;;;;
2021/05/08 22:51:38;;;;;;;6.6;4.15;;;;;;;7.79;100;95068.41;;;;
2021/05/08 22:52:39;;;;;;;6.6;4.15;;;;;;;7.79;100;95068.41;;;;
2021/05/08 22:53:41;;;;;;;6.6;4.15;;;;;;;7.79;100;95068.41;;;;
2021/05/08 22:54:41;;;;;;;6.6;4.15;;;;;;;7.79;100;95068.41;;;;
2021/05/08 22:55:42;;;;;;;6.6;4.15;;;;;;;7.79;100;95068.41;;;;
2021/05/08 22:56:42;;;;;;;6.6;4.15;;;;;;;7.79;100;95068.41;;;;
2021/05/08 22:57:43;;;;;;;5.2;3.7;;;;;;;7.62;100;95076.26;;;;
2021/05/08 22:58:44;;;;;;;5.2;3.7;;;;;;;7.62;100;95076.26;;;;
2021/05/08 22:59:46;;;;;;;5.2;3.7;;;;;;;7.62;100;95076.26;;;;
2021/05/08 23:00:49;;;;;;;5.2;3.7;;;;;;;7.62;100;95076.26;;;;
2021/05/08 23:01:49;;;;;;;5.2;3.7;;;;;;;7.62;100;95076.26;;;;
2021/05/08 23:02:50;;;;;;;5.2;3.7;;;;;;;7.62;100;95076.26;;;;
2021/05/08 23:03:53;;;;;;;5.2;3.7;;;;;;;7.62;100;95076.26;;;;
2021/05/08 23:04:53;;;;;;;5.2;3.7;;;;;;;7.62;100;95076.26;;;;
2021/05/08 23:05:54;;;;;;;5.2;3.7;;;;;;;7.62;100;95076.26;;;;
2021/05/08 23:06:54;;;;;;;5.2;3.7;;;;;;;7.62;100;95076.26;;;;
2021/05/08 23:07:55;;;;;;;5.15;3.05;;;;;;;7.48;100;95057.81;;;;
2021/05/08 23:08:55;;;;;;;5.15;3.05;;;;;;;7.48;100;95057.81;;;;